createdAt,value
2022-11-25T00:02:12.921Z,100158.34
2022-11-25T00:07:15.565Z,100142.66
2022-11-25T00:12:18.159Z,100150.13
2022-11-25T00:17:20.707Z,100156.84
2022-11-25T00:22:23.213Z,100161.38
2022-11-25T00:27:25.717Z,100145.38
2022-11-25T00:32:28.258Z,100165.22
2022-11-25T00:37:32.434Z,100182.34
2022-11-25T00:42:53.783Z,100165.44
2022-11-25T00:47:56.395Z,100163.81
2022-11-25T00:52:59.395Z,100183.78
2022-11-25T00:58:02.111Z,100181.34
2022-11-25T01:03:05.199Z,100167.78
2022-11-25T01:08:08.344Z,100194.66
2022-11-25T01:13:13.830Z,100181.38
2022-11-25T01:18:16.335Z,100189.69
2022-11-25T01:23:18.890Z,100187.38
2022-11-25T01:28:21.573Z,100189.13
2022-11-25T01:33:25.493Z,100199.78
2022-11-25T01:38:28.174Z,100202.94
2022-11-25T01:43:31.387Z,100210.88
2022-11-25T01:48:57.356Z,100204.00
2022-11-25T01:54:03.138Z,100168.78
2022-11-25T01:59:07.456Z,100205.63
2022-11-25T02:04:15.673Z,100215.81
2022-11-25T02:09:21.548Z,100216.97
2022-11-25T02:14:26.408Z,100217.16
2022-11-25T02:19:40.956Z,100213.75
2022-11-25T02:24:46.491Z,100215.44
2022-11-25T02:29:51.594Z,100214.81
2022-11-25T02:34:55.103Z,100210.28
2022-11-25T02:39:58.546Z,100214.06
2022-11-25T02:45:01.480Z,100219.31
2022-11-25T02:50:05.130Z,100229.75
2022-11-25T02:55:08.143Z,100232.84
2022-11-25T03:00:12.265Z,100230.06
2022-11-25T03:05:16.288Z,100241.81
2022-11-25T03:10:19.193Z,100239.47
2022-11-25T03:15:22.646Z,100248.28
2022-11-25T03:20:25.720Z,100253.41
2022-11-25T03:25:28.333Z,100251.22
2022-11-25T03:30:31.665Z,100264.28
2022-11-25T03:35:37.044Z,100263.63
2022-11-25T03:40:40.170Z,100275.13
2022-11-25T03:45:43.014Z,100281.16
2022-11-25T03:50:49.068Z,100276.91
2022-11-25T03:55:51.646Z,100266.06
2022-11-25T04:01:03.578Z,100262.19
2022-11-25T04:06:07.723Z,100293.81
2022-11-25T04:11:10.909Z,100298.16
2022-11-25T04:16:26.195Z,100300.97
2022-11-25T04:21:30.027Z,100305.44
2022-11-25T04:26:32.965Z,100271.41
2022-11-25T04:31:35.592Z,100319.25
2022-11-25T04:36:38.133Z,100315.75
2022-11-25T04:41:40.793Z,100317.78
2022-11-25T04:46:44.347Z,100317.00
2022-11-25T04:51:47.071Z,100314.41
2022-11-25T04:56:50.839Z,100299.56
2022-11-25T05:01:54.593Z,100288.28
2022-11-25T05:07:09.061Z,100326.72
2022-11-25T05:12:19.336Z,100322.34
2022-11-25T05:17:30.106Z,100315.47
2022-11-25T05:22:35.346Z,100319.63
2022-11-25T05:27:39.714Z,100318.59
2022-11-25T05:32:45.471Z,100286.53
2022-11-25T05:37:48.708Z,100320.91
2022-11-25T05:42:51.488Z,100344.19
2022-11-25T05:47:55.718Z,100324.19
2022-11-25T05:53:01.447Z,100335.00
2022-11-25T05:58:06.303Z,100347.66
2022-11-25T06:03:09.994Z,100326.91
2022-11-25T06:08:14.024Z,100326.91
2022-11-25T06:13:16.727Z,100322.53
2022-11-25T06:18:20.794Z,100358.47
2022-11-25T06:23:26.046Z,100363.72
2022-11-25T06:28:28.718Z,100374.31
2022-11-25T06:33:32.981Z,100363.63
2022-11-25T06:38:38.255Z,100378.00
2022-11-25T06:43:41.201Z,100365.66
2022-11-25T06:48:43.770Z,100383.72
2022-11-25T06:53:46.474Z,100382.34
2022-11-25T06:58:50.430Z,100377.59
2022-11-25T07:03:56.817Z,100389.09
2022-11-25T07:08:59.745Z,100390.84
2022-11-25T07:14:06.391Z,100386.94
2022-11-25T07:19:11.486Z,100394.03
2022-11-25T07:24:16.675Z,100395.69
2022-11-25T07:29:51.582Z,100401.41
2022-11-25T07:34:43.575Z,100402.72
2022-11-25T07:39:46.138Z,100396.88
2022-11-25T07:44:49.437Z,100402.28
2022-11-25T07:50:21.625Z,100409.03
2022-11-25T07:55:26.198Z,100405.69
2022-11-25T08:00:28.851Z,100403.09
2022-11-25T08:05:33.423Z,100416.81
2022-11-25T08:10:41.152Z,100413.09
2022-11-25T08:15:43.819Z,100426.81
2022-11-25T08:20:46.456Z,100430.91
2022-11-25T08:25:50.648Z,100428.84
2022-11-25T08:31:01.903Z,100420.19
2022-11-25T08:36:06.175Z,100434.25
2022-11-25T08:41:16.487Z,100405.88
2022-11-25T08:46:22.598Z,100452.75
2022-11-25T08:51:30.345Z,100449.97
2022-11-25T08:56:39.472Z,100434.94
2022-11-25T09:01:42.121Z,100448.66
2022-11-25T09:06:44.851Z,100440.28
2022-11-25T09:11:47.491Z,100452.56
2022-11-25T09:16:50.132Z,100458.47
2022-11-25T09:21:52.793Z,100418.91
2022-11-25T09:26:55.374Z,100458.19
2022-11-25T09:31:58.929Z,100391.44
2022-11-25T09:37:01.462Z,100452.19
2022-11-25T09:42:22.598Z,100443.22
2022-11-25T09:47:47.612Z,100446.78
2022-11-25T09:53:05.907Z,100422.09
2022-11-25T09:58:37.287Z,100445.28
2022-11-25T10:03:52.772Z,100448.97
2022-11-25T10:09:02.358Z,100454.44
2022-11-25T10:14:17.615Z,100458.56
2022-11-25T10:19:32.208Z,100461.16
2022-11-25T10:24:39.878Z,100470.91
2022-11-25T10:29:48.982Z,100450.19
2022-11-25T10:35:00.976Z,100480.81
2022-11-25T10:40:07.303Z,100481.72
2022-11-25T10:45:16.510Z,100456.75
2022-11-25T10:50:25.200Z,100483.16
2022-11-25T10:56:01.805Z,100489.69
2022-11-25T11:01:25.737Z,100407.19
2022-11-25T11:06:32.124Z,100490.19
2022-11-25T11:11:49.880Z,100478.16
2022-11-25T11:18:09.067Z,100484.63
2022-11-25T11:23:14.361Z,100499.25
2022-11-25T11:28:46.308Z,100505.00
2022-11-25T11:33:48.631Z,100503.28
2022-11-25T11:39:07.499Z,100501.41
2022-11-25T11:44:32.255Z,100512.94
2022-11-25T11:49:57.157Z,100517.13
2022-11-25T11:56:11.868Z,100524.28
2022-11-25T12:01:45.958Z,100526.41
2022-11-25T12:07:03.404Z,100523.19
2022-11-25T12:12:14.744Z,100544.88
2022-11-25T12:17:42.487Z,100537.22
2022-11-25T12:22:49.784Z,100528.00
2022-11-25T12:28:03.816Z,100539.03
2022-11-25T12:33:22.199Z,100536.56
2022-11-25T12:39:02.037Z,100542.53
2022-11-25T12:44:20.145Z,100557.06
2022-11-25T12:49:28.075Z,100535.81
2022-11-25T12:54:52.464Z,100556.09
2022-11-25T13:05:54.031Z,100473.16
2022-11-25T13:11:28.854Z,100567.91
2022-11-25T13:16:32.622Z,100579.88
2022-11-25T13:21:35.685Z,100557.63
2022-11-25T13:26:49.548Z,100590.31
2022-11-25T13:31:59.487Z,100592.44
2022-11-25T13:37:23.460Z,100588.91
2022-11-25T13:42:26.723Z,100588.53
2022-11-25T13:47:32.008Z,100592.34
2022-11-25T13:52:42.381Z,100585.34
2022-11-25T13:58:10.521Z,100581.16
2022-11-25T14:03:20.989Z,100593.41
2022-11-25T14:08:34.266Z,100583.19
2022-11-25T14:14:02.525Z,100612.66
2022-11-25T14:25:23.917Z,100607.19
2022-11-25T14:30:27.215Z,100603.41
2022-11-25T14:35:38.953Z,100604.22
2022-11-25T14:40:58.930Z,100612.53
2022-11-25T14:46:21.494Z,100618.31
2022-11-25T14:51:27.364Z,100576.16
2022-11-25T14:56:33.912Z,100614.81
2022-11-25T15:01:38.846Z,100627.25
2022-11-25T15:06:48.479Z,100628.91
2022-11-25T15:11:57.658Z,100624.72
2022-11-25T15:17:01.391Z,100629.78
2022-11-25T15:22:23.623Z,100623.19
2022-11-25T15:27:29.014Z,100631.72
2022-11-25T15:32:37.543Z,100619.50
2022-11-25T15:37:40.084Z,100632.72
2022-11-25T15:42:42.676Z,100624.34
2022-11-25T15:47:45.590Z,100639.13
2022-11-25T15:52:56.098Z,100644.00
2022-11-25T15:58:20.275Z,100641.13
2022-11-25T16:03:23.881Z,100655.63
2022-11-25T16:08:32.635Z,100646.69
2022-11-25T16:13:37.462Z,100637.09
2022-11-25T16:18:58.018Z,100654.31
2022-11-25T16:24:24.596Z,100653.34
2022-11-25T16:29:31.917Z,100659.66
2022-11-25T16:34:34.642Z,100655.09
2022-11-25T16:39:38.854Z,100661.69
2022-11-25T16:44:45.568Z,100661.28
2022-11-25T16:49:48.428Z,100654.31
2022-11-25T16:54:51.584Z,100663.91
2022-11-25T16:59:58.927Z,100655.19
2022-11-25T17:05:17.714Z,100645.25
2022-11-25T17:10:21.341Z,100633.75
2022-11-25T17:15:32.677Z,100673.94
2022-11-25T17:20:35.411Z,100674.38
2022-11-25T17:25:38.016Z,100661.03
2022-11-25T17:30:40.823Z,100668.97
2022-11-25T17:35:43.877Z,100663.34
2022-11-25T17:40:47.563Z,100661.38
2022-11-25T17:45:50.186Z,100667.16
2022-11-25T17:50:52.773Z,100673.47
2022-11-25T17:55:56.257Z,100675.13
2022-11-25T18:00:58.922Z,100674.75
2022-11-25T18:06:03.117Z,100678.97
2022-11-25T18:11:07.152Z,100679.75
2022-11-25T18:16:10.853Z,100679.25
2022-11-25T18:21:13.444Z,100683.44
2022-11-25T18:26:16.086Z,100661.34
2022-11-25T18:31:18.859Z,100690.69
2022-11-25T18:36:21.634Z,100685.63
2022-11-25T18:41:24.315Z,100657.91
2022-11-25T18:46:27.243Z,100697.38
2022-11-25T18:51:29.915Z,100704.66
2022-11-25T18:56:33.755Z,100692.94
2022-11-25T19:01:36.339Z,100712.13
2022-11-25T19:06:41.596Z,100711.06
2022-11-25T19:11:50.190Z,100735.75
2022-11-25T19:16:52.944Z,100678.16
2022-11-25T19:21:55.607Z,100735.53
2022-11-25T19:26:58.211Z,100743.66
2022-11-25T19:32:02.655Z,100734.75
2022-11-25T19:37:05.626Z,100726.16
2022-11-25T19:42:09.911Z,100736.75
2022-11-25T19:47:21.035Z,100718.16
2022-11-25T19:52:30.745Z,100730.38
2022-11-25T19:57:33.350Z,100740.09
2022-11-25T20:02:36.495Z,100687.50
2022-11-25T20:07:39.327Z,100748.53
2022-11-25T20:12:42.519Z,100752.19
2022-11-25T20:17:52.305Z,100747.19
2022-11-25T20:23:17.804Z,100750.22
2022-11-25T20:28:23.148Z,100726.13
2022-11-25T20:33:28.779Z,100770.03
2022-11-25T20:38:33.706Z,100774.22
2022-11-25T20:43:43.387Z,100710.41
2022-11-25T20:48:46.096Z,100775.41
2022-11-25T20:53:57.283Z,100775.69
2022-11-25T20:58:59.903Z,100779.53
2022-11-25T21:04:02.576Z,100751.41
2022-11-25T21:09:07.128Z,100752.88
2022-11-25T21:14:15.681Z,100770.34
2022-11-25T21:19:18.665Z,100793.97
2022-11-25T21:24:34.253Z,100799.66
2022-11-25T21:29:36.948Z,100792.78
2022-11-25T21:34:40.041Z,100792.78
2022-11-25T21:39:42.979Z,100755.56
2022-11-25T21:44:46.478Z,100792.44
2022-11-25T21:49:50.074Z,100805.25
2022-11-25T21:54:52.876Z,100793.78
2022-11-25T21:59:56.033Z,100786.75
2022-11-25T22:04:59.043Z,100800.94
2022-11-25T22:10:01.560Z,100786.22
2022-11-25T22:15:12.960Z,100768.78
2022-11-25T22:20:25.446Z,100786.22
2022-11-25T22:25:31.414Z,100813.31
2022-11-25T22:30:34.395Z,100809.09
2022-11-25T22:35:36.931Z,100813.63
2022-11-25T22:40:41.025Z,100801.94
2022-11-25T22:45:44.382Z,100767.13
2022-11-25T22:50:47.003Z,100779.63
2022-11-25T22:55:50.498Z,100808.47
2022-11-25T23:00:53.241Z,100806.41
2022-11-25T23:05:57.113Z,100804.53
2022-11-25T23:10:59.835Z,100801.22
2022-11-25T23:16:04.758Z,100789.59
2022-11-25T23:21:16.644Z,100781.94
2022-11-25T23:26:19.180Z,100789.50
2022-11-25T23:31:21.756Z,100805.75
2022-11-25T23:36:45.619Z,100800.09
2022-11-25T23:41:49.000Z,100798.91
2022-11-25T23:46:53.987Z,100796.97
2022-11-25T23:52:03.337Z,100810.03
2022-11-25T23:57:17.193Z,100809.56
